sensor_id;sensor_type;location;lat;lon;timestamp;temperature;humidity
16578;DHT22;8401;52.528;13.340;2023-10-13T00:00:33;14.50;99.90
16578;DHT22;8401;52.528;13.340;2023-10-13T00:03:02;14.50;99.90
16578;DHT22;8401;52.528;13.340;2023-10-13T00:05:29;14.40;99.90
16578;DHT22;8401;52.528;13.340;2023-10-13T00:08:02;14.40;99.90
16578;DHT22;8401;52.528;13.340;2023-10-13T00:10:32;14.40;99.90
16578;DHT22;8401;52.528;13.340;2023-10-13T00:12:59;14.30;99.90
16578;DHT22;8401;52.528;13.340;2023-10-13T00:15:51;14.30;99.90
16578;DHT22;8401;52.528;13.340;2023-10-13T00:18:27;14.30;99.90
16578;DHT22;8401;52.528;13.340;2023-10-13T00:20:59;14.30;99.90
16578;DHT22;8401;52.528;13.340;2023-10-13T00:23:24;14.30;99.90
16578;DHT22;8401;52.528;13.340;2023-10-13T00:25:53;14.30;99.90
16578;DHT22;8401;52.528;13.340;2023-10-13T00:28:28;14.30;99.90
16578;DHT22;8401;52.528;13.340;2023-10-13T00:31:01;14.30;99.90
16578;DHT22;8401;52.528;13.340;2023-10-13T00:33:38;14.30;99.90
16578;DHT22;8401;52.528;13.340;2023-10-13T00:36:07;14.30;99.90
16578;DHT22;8401;52.528;13.340;2023-10-13T00:38:33;14.30;99.90
16578;DHT22;8401;52.528;13.340;2023-10-13T00:41:00;14.20;99.90
16578;DHT22;8401;52.528;13.340;2023-10-13T00:43:45;14.30;99.90
16578;DHT22;8401;52.528;13.340;2023-10-13T00:46:11;14.30;99.90
16578;DHT22;8401;52.528;13.340;2023-10-13T00:48:42;14.30;99.90
16578;DHT22;8401;52.528;13.340;2023-10-13T00:51:09;14.30;99.90
16578;DHT22;8401;52.528;13.340;2023-10-13T00:53:54;14.30;99.90
16578;DHT22;8401;52.528;13.340;2023-10-13T00:56:22;14.30;99.90
16578;DHT22;8401;52.528;13.340;2023-10-13T00:58:54;14.20;99.90
16578;DHT22;8401;52.528;13.340;2023-10-13T01:01:23;14.20;99.90
16578;DHT22;8401;52.528;13.340;2023-10-13T01:03:55;14.10;99.90
16578;DHT22;8401;52.528;13.340;2023-10-13T01:06:27;14.10;99.90
16578;DHT22;8401;52.528;13.340;2023-10-13T01:09:02;14.10;99.90
16578;DHT22;8401;52.528;13.340;2023-10-13T01:11:45;14.20;99.90
16578;DHT22;8401;52.528;13.340;2023-10-13T01:14:14;14.20;99.90
16578;DHT22;8401;52.528;13.340;2023-10-13T01:16:43;14.20;99.90
16578;DHT22;8401;52.528;13.340;2023-10-13T01:19:11;14.20;99.90
16578;DHT22;8401;52.528;13.340;2023-10-13T01:21:38;14.20;99.90
16578;DHT22;8401;52.528;13.340;2023-10-13T01:24:06;14.20;99.90
16578;DHT22;8401;52.528;13.340;2023-10-13T01:26:34;14.20;99.90
16578;DHT22;8401;52.528;13.340;2023-10-13T01:29:05;14.30;99.90
16578;DHT22;8401;52.528;13.340;2023-10-13T01:31:43;14.30;99.90
16578;DHT22;8401;52.528;13.340;2023-10-13T01:34:16;14.30;99.90
16578;DHT22;8401;52.528;13.340;2023-10-13T01:36:51;14.30;99.90
16578;DHT22;8401;52.528;13.340;2023-10-13T01:39:21;14.30;99.90
16578;DHT22;8401;52.528;13.340;2023-10-13T01:41:52;14.30;99.90
16578;DHT22;8401;52.528;13.340;2023-10-13T01:44:29;14.20;99.90
16578;DHT22;8401;52.528;13.340;2023-10-13T01:47:01;14.20;99.90
16578;DHT22;8401;52.528;13.340;2023-10-13T01:49:32;14.10;99.90
16578;DHT22;8401;52.528;13.340;2023-10-13T01:52:07;14.10;99.90
16578;DHT22;8401;52.528;13.340;2023-10-13T01:54:36;14.10;99.90
16578;DHT22;8401;52.528;13.340;2023-10-13T01:57:08;14.10;99.90
16578;DHT22;8401;52.528;13.340;2023-10-13T01:59:34;14.00;99.90
16578;DHT22;8401;52.528;13.340;2023-10-13T02:02:12;14.00;99.90
16578;DHT22;8401;52.528;13.340;2023-10-13T02:04:39;14.00;99.90
16578;DHT22;8401;52.528;13.340;2023-10-13T02:07:15;14.00;99.90
16578;DHT22;8401;52.528;13.340;2023-10-13T02:09:41;14.00;99.90
16578;DHT22;8401;52.528;13.340;2023-10-13T02:12:08;14.00;99.90
16578;DHT22;8401;52.528;13.340;2023-10-13T02:14:35;13.90;99.90
16578;DHT22;8401;52.528;13.340;2023-10-13T02:17:02;13.90;99.90
16578;DHT22;8401;52.528;13.340;2023-10-13T02:19:41;14.00;99.90
16578;DHT22;8401;52.528;13.340;2023-10-13T02:22:11;14.00;99.90
16578;DHT22;8401;52.528;13.340;2023-10-13T02:24:37;13.90;99.90
16578;DHT22;8401;52.528;13.340;2023-10-13T02:27:09;13.90;99.90
16578;DHT22;8401;52.528;13.340;2023-10-13T02:29:40;14.00;99.90
16578;DHT22;8401;52.528;13.340;2023-10-13T02:32:07;14.00;99.90
16578;DHT22;8401;52.528;13.340;2023-10-13T02:34:40;14.00;99.90
16578;DHT22;8401;52.528;13.340;2023-10-13T02:37:10;14.00;99.90
16578;DHT22;8401;52.528;13.340;2023-10-13T02:39:36;14.10;99.90
16578;DHT22;8401;52.528;13.340;2023-10-13T02:42:02;14.00;99.90
16578;DHT22;8401;52.528;13.340;2023-10-13T02:44:33;14.00;99.90
16578;DHT22;8401;52.528;13.340;2023-10-13T02:46:59;14.00;99.90
16578;DHT22;8401;52.528;13.340;2023-10-13T02:49:26;13.90;99.90
16578;DHT22;8401;52.528;13.340;2023-10-13T02:51:53;13.90;99.90
16578;DHT22;8401;52.528;13.340;2023-10-13T02:54:21;13.90;99.90
16578;DHT22;8401;52.528;13.340;2023-10-13T02:56:46;13.90;99.90
16578;DHT22;8401;52.528;13.340;2023-10-13T02:59:23;14.00;99.90
16578;DHT22;8401;52.528;13.340;2023-10-13T03:02:01;14.00;99.90
16578;DHT22;8401;52.528;13.340;2023-10-13T03:04:32;14.00;99.90
16578;DHT22;8401;52.528;13.340;2023-10-13T03:06:58;14.00;99.90
16578;DHT22;8401;52.528;13.340;2023-10-13T03:09:25;14.00;99.90
16578;DHT22;8401;52.528;13.340;2023-10-13T03:11:51;14.00;99.90
16578;DHT22;8401;52.528;13.340;2023-10-13T03:14:18;14.10;99.90
16578;DHT22;8401;52.528;13.340;2023-10-13T03:17:01;14.10;99.90
16578;DHT22;8401;52.528;13.340;2023-10-13T03:19:44;14.00;99.90
16578;DHT22;8401;52.528;13.340;2023-10-13T03:22:16;14.10;99.90
16578;DHT22;8401;52.528;13.340;2023-10-13T03:24:45;14.10;99.90
16578;DHT22;8401;52.528;13.340;2023-10-13T03:27:17;14.10;99.90
16578;DHT22;8401;52.528;13.340;2023-10-13T03:29:44;14.10;99.90
16578;DHT22;8401;52.528;13.340;2023-10-13T03:32:11;14.10;99.90
16578;DHT22;8401;52.528;13.340;2023-10-13T03:34:41;14.20;99.90
16578;DHT22;8401;52.528;13.340;2023-10-13T03:37:16;14.20;99.90
16578;DHT22;8401;52.528;13.340;2023-10-13T03:40:02;14.20;99.90
16578;DHT22;8401;52.528;13.340;2023-10-13T03:42:32;14.30;99.90
16578;DHT22;8401;52.528;13.340;2023-10-13T03:44:57;14.30;99.90
16578;DHT22;8401;52.528;13.340;2023-10-13T03:47:23;14.20;99.90
16578;DHT22;8401;52.528;13.340;2023-10-13T03:49:54;14.20;99.90
16578;DHT22;8401;52.528;13.340;2023-10-13T03:52:40;14.10;99.90
16578;DHT22;8401;52.528;13.340;2023-10-13T03:55:06;14.10;99.90
16578;DHT22;8401;52.528;13.340;2023-10-13T03:57:32;14.10;99.90
16578;DHT22;8401;52.528;13.340;2023-10-13T04:00:04;14.10;99.90
16578;DHT22;8401;52.528;13.340;2023-10-13T04:02:34;14.20;99.90
16578;DHT22;8401;52.528;13.340;2023-10-13T04:05:00;14.20;99.90
16578;DHT22;8401;52.528;13.340;2023-10-13T04:07:33;14.20;99.90
16578;DHT22;8401;52.528;13.340;2023-10-13T04:10:07;14.10;99.90
16578;DHT22;8401;52.528;13.340;2023-10-13T04:13:04;14.10;99.90
16578;DHT22;8401;52.528;13.340;2023-10-13T04:15:49;14.20;99.90
16578;DHT22;8401;52.528;13.340;2023-10-13T04:18:40;14.20;99.90
16578;DHT22;8401;52.528;13.340;2023-10-13T04:21:29;14.20;99.90
16578;DHT22;8401;52.528;13.340;2023-10-13T04:26:43;14.30;99.90
16578;DHT22;8401;52.528;13.340;2023-10-13T04:29:28;14.40;99.90
16578;DHT22;8401;52.528;13.340;2023-10-13T04:32:15;14.30;99.90
16578;DHT22;8401;52.528;13.340;2023-10-13T04:34:57;14.30;99.90
16578;DHT22;8401;52.528;13.340;2023-10-13T04:37:46;14.40;99.90
16578;DHT22;8401;52.528;13.340;2023-10-13T04:40:14;14.40;99.90
16578;DHT22;8401;52.528;13.340;2023-10-13T04:42:42;14.40;99.90
16578;DHT22;8401;52.528;13.340;2023-10-13T04:45:17;14.40;99.90
16578;DHT22;8401;52.528;13.340;2023-10-13T04:47:55;14.40;99.90
16578;DHT22;8401;52.528;13.340;2023-10-13T04:50:45;14.40;99.90
16578;DHT22;8401;52.528;13.340;2023-10-13T04:53:16;14.40;99.90
16578;DHT22;8401;52.528;13.340;2023-10-13T04:56:20;14.40;99.90
16578;DHT22;8401;52.528;13.340;2023-10-13T04:59:24;14.50;99.90
16578;DHT22;8401;52.528;13.340;2023-10-13T05:02:02;14.50;99.90
16578;DHT22;8401;52.528;13.340;2023-10-13T05:04:47;14.50;99.90
16578;DHT22;8401;52.528;13.340;2023-10-13T05:07:34;14.50;99.90
16578;DHT22;8401;52.528;13.340;2023-10-13T05:10:19;14.50;99.90
16578;DHT22;8401;52.528;13.340;2023-10-13T05:13:04;14.60;99.90
16578;DHT22;8401;52.528;13.340;2023-10-13T05:15:50;14.60;99.90
16578;DHT22;8401;52.528;13.340;2023-10-13T05:18:34;14.70;99.90
16578;DHT22;8401;52.528;13.340;2023-10-13T05:21:20;14.70;99.90
16578;DHT22;8401;52.528;13.340;2023-10-13T05:24:04;14.70;99.90
16578;DHT22;8401;52.528;13.340;2023-10-13T05:26:48;14.60;99.90
16578;DHT22;8401;52.528;13.340;2023-10-13T05:29:33;14.70;99.90
16578;DHT22;8401;52.528;13.340;2023-10-13T05:32:17;14.70;99.90
16578;DHT22;8401;52.528;13.340;2023-10-13T05:35:02;14.70;99.90
16578;DHT22;8401;52.528;13.340;2023-10-13T05:37:46;14.70;99.90
16578;DHT22;8401;52.528;13.340;2023-10-13T05:40:30;14.70;99.90
16578;DHT22;8401;52.528;13.340;2023-10-13T05:43:14;14.70;99.90
16578;DHT22;8401;52.528;13.340;2023-10-13T05:46:03;14.80;99.90
16578;DHT22;8401;52.528;13.340;2023-10-13T05:48:47;14.80;99.90
16578;DHT22;8401;52.528;13.340;2023-10-13T05:51:29;14.80;99.90
16578;DHT22;8401;52.528;13.340;2023-10-13T05:54:01;14.80;99.90
16578;DHT22;8401;52.528;13.340;2023-10-13T05:56:49;14.80;99.90
16578;DHT22;8401;52.528;13.340;2023-10-13T05:59:36;14.90;99.90
16578;DHT22;8401;52.528;13.340;2023-10-13T06:02:21;14.90;99.90
16578;DHT22;8401;52.528;13.340;2023-10-13T06:05:07;14.90;99.90
16578;DHT22;8401;52.528;13.340;2023-10-13T06:07:52;15.00;99.90
16578;DHT22;8401;52.528;13.340;2023-10-13T06:10:37;15.00;99.90
16578;DHT22;8401;52.528;13.340;2023-10-13T06:13:21;15.10;99.90
16578;DHT22;8401;52.528;13.340;2023-10-13T06:16:10;15.10;99.90
16578;DHT22;8401;52.528;13.340;2023-10-13T06:18:54;15.20;99.90
16578;DHT22;8401;52.528;13.340;2023-10-13T06:21:39;15.20;99.90
16578;DHT22;8401;52.528;13.340;2023-10-13T06:24:23;15.20;99.90
16578;DHT22;8401;52.528;13.340;2023-10-13T06:27:07;15.30;99.90
16578;DHT22;8401;52.528;13.340;2023-10-13T06:29:51;15.30;99.90
16578;DHT22;8401;52.528;13.340;2023-10-13T06:32:19;15.30;99.90
16578;DHT22;8401;52.528;13.340;2023-10-13T06:34:45;15.30;99.90
16578;DHT22;8401;52.528;13.340;2023-10-13T06:37:15;15.40;99.90
16578;DHT22;8401;52.528;13.340;2023-10-13T06:40:03;15.40;99.90
16578;DHT22;8401;52.528;13.340;2023-10-13T06:42:48;15.30;99.90
16578;DHT22;8401;52.528;13.340;2023-10-13T06:45:14;15.40;99.90
16578;DHT22;8401;52.528;13.340;2023-10-13T06:47:43;15.30;99.90
16578;DHT22;8401;52.528;13.340;2023-10-13T06:50:15;15.40;99.90
16578;DHT22;8401;52.528;13.340;2023-10-13T06:52:42;15.50;99.90
16578;DHT22;8401;52.528;13.340;2023-10-13T06:55:09;15.50;99.90
16578;DHT22;8401;52.528;13.340;2023-10-13T06:57:43;15.50;99.90
16578;DHT22;8401;52.528;13.340;2023-10-13T07:00:10;15.60;99.90
16578;DHT22;8401;52.528;13.340;2023-10-13T07:02:47;15.70;99.90
16578;DHT22;8401;52.528;13.340;2023-10-13T07:05:13;15.90;99.90
16578;DHT22;8401;52.528;13.340;2023-10-13T07:07:40;15.90;99.90
16578;DHT22;8401;52.528;13.340;2023-10-13T07:10:12;16.00;99.90
16578;DHT22;8401;52.528;13.340;2023-10-13T07:12:38;16.20;99.90
16578;DHT22;8401;52.528;13.340;2023-10-13T07:15:09;16.30;99.90
16578;DHT22;8401;52.528;13.340;2023-10-13T07:17:37;16.40;99.90
16578;DHT22;8401;52.528;13.340;2023-10-13T07:20:06;16.50;99.90
16578;DHT22;8401;52.528;13.340;2023-10-13T07:23:01;16.60;99.90
16578;DHT22;8401;52.528;13.340;2023-10-13T07:25:32;16.60;99.90
16578;DHT22;8401;52.528;13.340;2023-10-13T07:28:07;16.60;99.90
16578;DHT22;8401;52.528;13.340;2023-10-13T07:30:35;16.60;99.90
16578;DHT22;8401;52.528;13.340;2023-10-13T07:33:36;16.80;99.90
16578;DHT22;8401;52.528;13.340;2023-10-13T07:36:02;16.90;99.90
16578;DHT22;8401;52.528;13.340;2023-10-13T07:38:39;16.90;99.90
16578;DHT22;8401;52.528;13.340;2023-10-13T07:41:08;17.00;99.90
16578;DHT22;8401;52.528;13.340;2023-10-13T07:43:34;17.10;99.90
16578;DHT22;8401;52.528;13.340;2023-10-13T07:45:59;17.20;99.90
16578;DHT22;8401;52.528;13.340;2023-10-13T07:48:32;17.30;99.90
16578;DHT22;8401;52.528;13.340;2023-10-13T07:51:06;17.20;99.90
16578;DHT22;8401;52.528;13.340;2023-10-13T07:53:36;17.30;99.90
16578;DHT22;8401;52.528;13.340;2023-10-13T07:56:09;17.30;99.90
16578;DHT22;8401;52.528;13.340;2023-10-13T07:58:37;17.30;99.90
16578;DHT22;8401;52.528;13.340;2023-10-13T08:01:21;17.20;99.90
16578;DHT22;8401;52.528;13.340;2023-10-13T08:03:47;17.20;99.90
16578;DHT22;8401;52.528;13.340;2023-10-13T08:06:15;17.20;99.90
16578;DHT22;8401;52.528;13.340;2023-10-13T08:08:41;17.20;99.90
16578;DHT22;8401;52.528;13.340;2023-10-13T08:11:13;17.20;99.90
16578;DHT22;8401;52.528;13.340;2023-10-13T08:14:06;17.20;99.90
16578;DHT22;8401;52.528;13.340;2023-10-13T08:16:48;17.30;99.90
16578;DHT22;8401;52.528;13.340;2023-10-13T08:19:22;17.40;99.90
16578;DHT22;8401;52.528;13.340;2023-10-13T08:21:59;17.50;99.90
16578;DHT22;8401;52.528;13.340;2023-10-13T08:24:28;17.60;99.90
16578;DHT22;8401;52.528;13.340;2023-10-13T08:27:15;17.70;99.90
16578;DHT22;8401;52.528;13.340;2023-10-13T08:30:00;17.70;99.90
16578;DHT22;8401;52.528;13.340;2023-10-13T08:32:27;17.70;99.90
16578;DHT22;8401;52.528;13.340;2023-10-13T08:34:57;17.80;99.90
16578;DHT22;8401;52.528;13.340;2023-10-13T08:37:22;17.90;99.90
16578;DHT22;8401;52.528;13.340;2023-10-13T08:39:59;17.90;99.90
16578;DHT22;8401;52.528;13.340;2023-10-13T08:42:34;17.80;99.90
16578;DHT22;8401;52.528;13.340;2023-10-13T08:45:20;17.90;99.90
16578;DHT22;8401;52.528;13.340;2023-10-13T08:47:59;17.90;99.90
16578;DHT22;8401;52.528;13.340;2023-10-13T08:50:45;17.90;99.90
16578;DHT22;8401;52.528;13.340;2023-10-13T08:53:17;17.80;99.90
16578;DHT22;8401;52.528;13.340;2023-10-13T08:56:00;17.80;99.90
16578;DHT22;8401;52.528;13.340;2023-10-13T08:58:34;17.70;99.90
16578;DHT22;8401;52.528;13.340;2023-10-13T09:01:19;17.70;99.90
16578;DHT22;8401;52.528;13.340;2023-10-13T09:04:08;17.70;99.90
16578;DHT22;8401;52.528;13.340;2023-10-13T09:06:44;17.70;99.90
16578;DHT22;8401;52.528;13.340;2023-10-13T09:09:27;17.80;99.90
16578;DHT22;8401;52.528;13.340;2023-10-13T09:11:54;17.80;99.90
16578;DHT22;8401;52.528;13.340;2023-10-13T09:14:42;17.80;99.90
16578;DHT22;8401;52.528;13.340;2023-10-13T09:17:13;17.90;99.90
16578;DHT22;8401;52.528;13.340;2023-10-13T09:19:49;17.90;99.90
16578;DHT22;8401;52.528;13.340;2023-10-13T09:22:25;18.00;99.90
16578;DHT22;8401;52.528;13.340;2023-10-13T09:25:01;18.00;99.90
16578;DHT22;8401;52.528;13.340;2023-10-13T09:27:29;18.00;99.90
16578;DHT22;8401;52.528;13.340;2023-10-13T09:30:01;17.90;99.90
16578;DHT22;8401;52.528;13.340;2023-10-13T09:32:44;17.90;99.90
16578;DHT22;8401;52.528;13.340;2023-10-13T09:35:20;18.00;99.90
16578;DHT22;8401;52.528;13.340;2023-10-13T09:37:52;18.00;99.90
16578;DHT22;8401;52.528;13.340;2023-10-13T09:40:22;18.00;99.90
16578;DHT22;8401;52.528;13.340;2023-10-13T09:43:03;18.00;99.90
16578;DHT22;8401;52.528;13.340;2023-10-13T09:45:41;17.90;99.90
16578;DHT22;8401;52.528;13.340;2023-10-13T09:48:37;17.90;99.90
16578;DHT22;8401;52.528;13.340;2023-10-13T09:51:18;17.80;99.90
16578;DHT22;8401;52.528;13.340;2023-10-13T09:56:50;17.70;99.90
16578;DHT22;8401;52.528;13.340;2023-10-13T09:59:35;17.60;99.90
16578;DHT22;8401;52.528;13.340;2023-10-13T10:02:03;17.50;99.90
16578;DHT22;8401;52.528;13.340;2023-10-13T10:04:54;17.60;99.90
16578;DHT22;8401;52.528;13.340;2023-10-13T10:07:28;17.50;99.90
16578;DHT22;8401;52.528;13.340;2023-10-13T10:10:00;17.60;99.90
16578;DHT22;8401;52.528;13.340;2023-10-13T10:15:29;17.60;99.90
16578;DHT22;8401;52.528;13.340;2023-10-13T10:18:02;17.60;99.90
16578;DHT22;8401;52.528;13.340;2023-10-13T10:20:36;17.60;99.90
16578;DHT22;8401;52.528;13.340;2023-10-13T10:23:08;17.60;99.90
16578;DHT22;8401;52.528;13.340;2023-10-13T10:25:38;17.60;99.90
16578;DHT22;8401;52.528;13.340;2023-10-13T10:28:10;17.60;99.90
16578;DHT22;8401;52.528;13.340;2023-10-13T10:30:41;17.60;99.90
16578;DHT22;8401;52.528;13.340;2023-10-13T10:33:08;17.60;99.90
16578;DHT22;8401;52.528;13.340;2023-10-13T10:35:46;17.60;99.90
16578;DHT22;8401;52.528;13.340;2023-10-13T10:38:13;17.60;99.90
16578;DHT22;8401;52.528;13.340;2023-10-13T10:41:01;17.60;99.90
16578;DHT22;8401;52.528;13.340;2023-10-13T10:43:28;17.70;99.90
16578;DHT22;8401;52.528;13.340;2023-10-13T10:46:12;17.70;99.90
16578;DHT22;8401;52.528;13.340;2023-10-13T10:48:38;17.60;99.90
16578;DHT22;8401;52.528;13.340;2023-10-13T10:51:09;17.60;99.90
16578;DHT22;8401;52.528;13.340;2023-10-13T10:53:48;17.60;99.90
16578;DHT22;8401;52.528;13.340;2023-10-13T10:56:21;17.60;99.90
16578;DHT22;8401;52.528;13.340;2023-10-13T10:59:04;17.60;99.90
16578;DHT22;8401;52.528;13.340;2023-10-13T11:01:31;17.60;99.90
16578;DHT22;8401;52.528;13.340;2023-10-13T11:04:06;17.70;99.90
16578;DHT22;8401;52.528;13.340;2023-10-13T11:06:49;17.80;99.90
16578;DHT22;8401;52.528;13.340;2023-10-13T11:09:15;17.80;99.90
16578;DHT22;8401;52.528;13.340;2023-10-13T11:11:51;17.80;99.90
16578;DHT22;8401;52.528;13.340;2023-10-13T11:14:26;17.80;99.90
16578;DHT22;8401;52.528;13.340;2023-10-13T11:16:53;17.80;99.90
16578;DHT22;8401;52.528;13.340;2023-10-13T11:19:41;17.90;99.90
16578;DHT22;8401;52.528;13.340;2023-10-13T11:25:04;18.00;99.90
16578;DHT22;8401;52.528;13.340;2023-10-13T11:27:41;18.00;99.90
16578;DHT22;8401;52.528;13.340;2023-10-13T11:30:19;18.10;99.90
16578;DHT22;8401;52.528;13.340;2023-10-13T11:33:10;18.20;99.90
16578;DHT22;8401;52.528;13.340;2023-10-13T11:35:39;18.20;99.90
16578;DHT22;8401;52.528;13.340;2023-10-13T11:38:33;18.20;99.90
16578;DHT22;8401;52.528;13.340;2023-10-13T11:41:14;18.30;99.90
16578;DHT22;8401;52.528;13.340;2023-10-13T11:43:46;18.40;99.90
16578;DHT22;8401;52.528;13.340;2023-10-13T11:46:15;18.40;99.90
16578;DHT22;8401;52.528;13.340;2023-10-13T11:48:45;18.40;99.90
16578;DHT22;8401;52.528;13.340;2023-10-13T11:51:19;18.50;99.90
16578;DHT22;8401;52.528;13.340;2023-10-13T11:53:58;18.60;99.90
16578;DHT22;8401;52.528;13.340;2023-10-13T11:56:24;18.60;99.90
16578;DHT22;8401;52.528;13.340;2023-10-13T11:58:50;18.70;99.90
16578;DHT22;8401;52.528;13.340;2023-10-13T12:01:17;18.70;99.90
16578;DHT22;8401;52.528;13.340;2023-10-13T12:03:47;18.80;99.90
16578;DHT22;8401;52.528;13.340;2023-10-13T12:06:32;18.90;99.90
16578;DHT22;8401;52.528;13.340;2023-10-13T12:09:08;19.00;99.90
16578;DHT22;8401;52.528;13.340;2023-10-13T12:11:43;19.00;99.90
16578;DHT22;8401;52.528;13.340;2023-10-13T12:14:13;19.10;99.90
16578;DHT22;8401;52.528;13.340;2023-10-13T12:16:46;19.10;99.90
16578;DHT22;8401;52.528;13.340;2023-10-13T12:19:17;19.10;99.90
16578;DHT22;8401;52.528;13.340;2023-10-13T12:21:44;19.10;99.90
16578;DHT22;8401;52.528;13.340;2023-10-13T12:24:10;19.10;99.90
16578;DHT22;8401;52.528;13.340;2023-10-13T12:26:49;19.20;99.90
16578;DHT22;8401;52.528;13.340;2023-10-13T12:29:22;19.30;99.90
16578;DHT22;8401;52.528;13.340;2023-10-13T12:31:49;19.40;99.90
16578;DHT22;8401;52.528;13.340;2023-10-13T12:34:34;19.50;99.90
16578;DHT22;8401;52.528;13.340;2023-10-13T12:37:19;19.50;99.90
16578;DHT22;8401;52.528;13.340;2023-10-13T12:40:05;19.50;99.90
16578;DHT22;8401;52.528;13.340;2023-10-13T12:42:49;19.50;99.90
16578;DHT22;8401;52.528;13.340;2023-10-13T12:45:38;19.60;99.90
16578;DHT22;8401;52.528;13.340;2023-10-13T12:48:22;19.70;99.90
16578;DHT22;8401;52.528;13.340;2023-10-13T12:51:06;19.70;99.90
16578;DHT22;8401;52.528;13.340;2023-10-13T12:53:56;19.70;99.90
16578;DHT22;8401;52.528;13.340;2023-10-13T12:56:31;19.80;99.90
16578;DHT22;8401;52.528;13.340;2023-10-13T12:58:57;19.90;99.90
16578;DHT22;8401;52.528;13.340;2023-10-13T13:01:24;19.90;99.90
16578;DHT22;8401;52.528;13.340;2023-10-13T13:03:51;19.90;99.90
16578;DHT22;8401;52.528;13.340;2023-10-13T13:06:23;20.00;99.90
16578;DHT22;8401;52.528;13.340;2023-10-13T13:08:52;20.10;99.90
16578;DHT22;8401;52.528;13.340;2023-10-13T13:11:18;20.00;99.90
16578;DHT22;8401;52.528;13.340;2023-10-13T13:13:44;20.20;99.90
16578;DHT22;8401;52.528;13.340;2023-10-13T13:16:17;20.30;99.90
16578;DHT22;8401;52.528;13.340;2023-10-13T13:18:46;20.40;99.90
16578;DHT22;8401;52.528;13.340;2023-10-13T13:21:12;20.60;99.90
16578;DHT22;8401;52.528;13.340;2023-10-13T13:23:38;20.70;99.90
16578;DHT22;8401;52.528;13.340;2023-10-13T13:26:06;20.70;99.90
16578;DHT22;8401;52.528;13.340;2023-10-13T13:28:50;20.80;99.90
16578;DHT22;8401;52.528;13.340;2023-10-13T13:31:19;20.80;99.90
16578;DHT22;8401;52.528;13.340;2023-10-13T13:33:50;20.90;99.90
16578;DHT22;8401;52.528;13.340;2023-10-13T13:36:16;20.90;99.90
16578;DHT22;8401;52.528;13.340;2023-10-13T13:38:42;21.00;99.90
16578;DHT22;8401;52.528;13.340;2023-10-13T13:41:15;21.10;99.90
16578;DHT22;8401;52.528;13.340;2023-10-13T13:43:49;21.10;99.90
16578;DHT22;8401;52.528;13.340;2023-10-13T13:46:18;21.10;99.90
16578;DHT22;8401;52.528;13.340;2023-10-13T13:48:45;21.20;99.90
16578;DHT22;8401;52.528;13.340;2023-10-13T13:51:14;21.30;99.90
16578;DHT22;8401;52.528;13.340;2023-10-13T13:53:43;21.10;99.90
16578;DHT22;8401;52.528;13.340;2023-10-13T13:56:14;21.30;99.90
16578;DHT22;8401;52.528;13.340;2023-10-13T13:58:43;21.40;99.90
16578;DHT22;8401;52.528;13.340;2023-10-13T14:01:08;21.50;99.90
16578;DHT22;8401;52.528;13.340;2023-10-13T14:03:45;21.70;99.90
16578;DHT22;8401;52.528;13.340;2023-10-13T14:06:15;21.70;99.90
16578;DHT22;8401;52.528;13.340;2023-10-13T14:09:00;21.80;99.90
16578;DHT22;8401;52.528;13.340;2023-10-13T14:11:30;21.90;99.90
16578;DHT22;8401;52.528;13.340;2023-10-13T14:14:05;21.90;99.90
16578;DHT22;8401;52.528;13.340;2023-10-13T14:16:38;21.90;99.90
16578;DHT22;8401;52.528;13.340;2023-10-13T14:19:10;22.00;99.90
16578;DHT22;8401;52.528;13.340;2023-10-13T14:21:36;21.80;99.90
16578;DHT22;8401;52.528;13.340;2023-10-13T14:24:02;21.90;99.90
16578;DHT22;8401;52.528;13.340;2023-10-13T14:26:28;21.80;99.90
16578;DHT22;8401;52.528;13.340;2023-10-13T14:28:55;21.90;99.90
16578;DHT22;8401;52.528;13.340;2023-10-13T14:31:28;21.90;99.90
16578;DHT22;8401;52.528;13.340;2023-10-13T14:33:53;21.90;99.90
16578;DHT22;8401;52.528;13.340;2023-10-13T14:36:19;21.90;99.90
16578;DHT22;8401;52.528;13.340;2023-10-13T14:38:48;21.90;99.90
16578;DHT22;8401;52.528;13.340;2023-10-13T14:41:18;21.90;99.90
16578;DHT22;8401;52.528;13.340;2023-10-13T14:43:45;21.90;99.90
16578;DHT22;8401;52.528;13.340;2023-10-13T14:46:14;21.90;99.90
16578;DHT22;8401;52.528;13.340;2023-10-13T14:48:40;21.80;99.90
16578;DHT22;8401;52.528;13.340;2023-10-13T14:51:12;21.70;99.90
16578;DHT22;8401;52.528;13.340;2023-10-13T14:53:41;21.60;99.90
16578;DHT22;8401;52.528;13.340;2023-10-13T14:56:13;21.50;99.90
16578;DHT22;8401;52.528;13.340;2023-10-13T14:58:39;21.50;99.90
16578;DHT22;8401;52.528;13.340;2023-10-13T15:01:14;21.40;99.90
16578;DHT22;8401;52.528;13.340;2023-10-13T15:03:48;21.50;99.90
16578;DHT22;8401;52.528;13.340;2023-10-13T15:06:25;21.40;99.90
16578;DHT22;8401;52.528;13.340;2023-10-13T15:08:55;21.40;99.90
16578;DHT22;8401;52.528;13.340;2023-10-13T15:11:21;21.50;99.90
16578;DHT22;8401;52.528;13.340;2023-10-13T15:13:52;21.40;99.90
16578;DHT22;8401;52.528;13.340;2023-10-13T15:16:20;21.40;99.90
16578;DHT22;8401;52.528;13.340;2023-10-13T15:18:48;21.30;99.90
16578;DHT22;8401;52.528;13.340;2023-10-13T15:21:25;21.20;99.90
16578;DHT22;8401;52.528;13.340;2023-10-13T15:24:03;21.30;99.90
16578;DHT22;8401;52.528;13.340;2023-10-13T15:26:32;21.30;99.90
16578;DHT22;8401;52.528;13.340;2023-10-13T15:29:03;21.30;99.90
16578;DHT22;8401;52.528;13.340;2023-10-13T15:31:34;21.30;99.90
16578;DHT22;8401;52.528;13.340;2023-10-13T15:34:04;21.30;99.90
16578;DHT22;8401;52.528;13.340;2023-10-13T15:36:42;21.20;99.90
16578;DHT22;8401;52.528;13.340;2023-10-13T15:39:11;21.20;99.90
16578;DHT22;8401;52.528;13.340;2023-10-13T15:41:41;21.20;99.90
16578;DHT22;8401;52.528;13.340;2023-10-13T15:44:13;21.10;99.90
16578;DHT22;8401;52.528;13.340;2023-10-13T15:46:39;21.10;99.90
16578;DHT22;8401;52.528;13.340;2023-10-13T15:49:06;21.10;99.90
16578;DHT22;8401;52.528;13.340;2023-10-13T15:51:35;21.00;99.90
16578;DHT22;8401;52.528;13.340;2023-10-13T15:54:04;21.00;99.90
16578;DHT22;8401;52.528;13.340;2023-10-13T15:56:30;20.90;99.90
16578;DHT22;8401;52.528;13.340;2023-10-13T15:58:59;21.00;99.90
16578;DHT22;8401;52.528;13.340;2023-10-13T16:01:27;21.00;99.90
16578;DHT22;8401;52.528;13.340;2023-10-13T16:03:54;21.00;99.90
16578;DHT22;8401;52.528;13.340;2023-10-13T16:06:19;21.00;99.90
16578;DHT22;8401;52.528;13.340;2023-10-13T16:08:51;21.00;99.90
16578;DHT22;8401;52.528;13.340;2023-10-13T16:11:17;21.00;99.90
16578;DHT22;8401;52.528;13.340;2023-10-13T16:13:44;20.90;99.90
16578;DHT22;8401;52.528;13.340;2023-10-13T16:16:20;21.00;99.90
16578;DHT22;8401;52.528;13.340;2023-10-13T16:18:50;20.90;99.90
16578;DHT22;8401;52.528;13.340;2023-10-13T16:21:17;20.90;99.90
16578;DHT22;8401;52.528;13.340;2023-10-13T16:23:44;20.90;99.90